Time;durP1;ratioP1;P1;durP2;ratioP2;P2;SDS_P1;SDS_P2;PMS_P1;PMS_P2;Temp;Humidity;BMP_temperature;BMP_pressure;BME280_temperature;BME280_humidity;BME280_pressure;Samples;Min_cycle;Max_cycle;Signal;HPM_P1;HPM_P2
2022/02/18 00:00:29;;;;;;;12.57;3.60;;;9.20;99.90;;;;;;2105895;28;20126;-70
2022/02/18 00:01:30;;;;;;;14.00;4.00;;;9.20;99.90;;;;;;2101813;28;20456;-71
2022/02/18 00:02:30;;;;;;;15.77;4.28;;;9.20;99.90;;;;;;2097932;28;20051;-71
2022/02/18 00:03:32;;;;;;;11.38;4.00;;;9.20;99.90;;;;;;2104114;28;20028;-70
2022/02/18 00:04:33;;;;;;;12.00;3.85;;;9.20;99.90;;;;;;2100798;28;20016;-71
2022/02/18 00:05:33;;;;;;;13.88;3.83;;;9.20;99.90;;;;;;2107045;28;20023;-71
2022/02/18 00:06:34;;;;;;;12.18;4.10;;;9.20;99.90;;;;;;2101977;28;20024;-70
2022/02/18 00:07:34;;;;;;;12.27;4.28;;;9.10;99.90;;;;;;2104145;28;20043;-70
2022/02/18 00:08:35;;;;;;;12.48;3.95;;;9.10;99.90;;;;;;2105004;28;20074;-70
2022/02/18 00:09:36;;;;;;;10.48;3.55;;;9.20;99.90;;;;;;2103209;28;20028;-71
2022/02/18 00:10:36;;;;;;;13.73;3.72;;;9.10;99.90;;;;;;2104331;28;20383;-70
2022/02/18 00:11:37;;;;;;;15.20;4.18;;;9.10;99.90;;;;;;2100560;28;20141;-70
2022/02/18 00:12:37;;;;;;;13.40;4.00;;;9.10;99.90;;;;;;2105730;28;20016;-71
2022/02/18 00:13:38;;;;;;;12.88;4.68;;;9.10;99.90;;;;;;2107385;28;20042;-71
2022/02/18 00:14:38;;;;;;;14.32;4.78;;;9.10;99.90;;;;;;2102029;28;20107;-70
2022/02/18 00:15:40;;;;;;;15.75;4.38;;;9.10;99.90;;;;;;2103345;28;20027;-71
2022/02/18 00:16:40;;;;;;;18.40;3.88;;;9.10;99.90;;;;;;2104293;28;20425;-70
2022/02/18 00:17:41;;;;;;;13.63;4.45;;;9.10;99.90;;;;;;2103190;28;20028;-70
2022/02/18 00:18:41;;;;;;;9.90;3.90;;;9.10;99.90;;;;;;2103649;28;20020;-70
2022/02/18 00:19:42;;;;;;;13.55;4.20;;;9.10;99.90;;;;;;2101911;28;20016;-71
2022/02/18 00:20:42;;;;;;;13.52;4.43;;;9.10;99.90;;;;;;2104080;28;20024;-71
2022/02/18 00:21:43;;;;;;;15.73;4.55;;;9.10;99.90;;;;;;2103466;28;20036;-71
2022/02/18 00:22:43;;;;;;;15.95;4.32;;;9.10;99.90;;;;;;2104125;28;20091;-70
2022/02/18 00:23:44;;;;;;;10.70;4.03;;;9.10;99.90;;;;;;2104488;28;20443;-70
2022/02/18 00:24:46;;;;;;;11.48;4.10;;;9.10;99.90;;;;;;2101822;28;20082;-71
2022/02/18 00:25:46;;;;;;;15.82;4.30;;;9.00;99.90;;;;;;2104068;28;20024;-70
2022/02/18 00:26:47;;;;;;;16.52;4.38;;;9.10;99.90;;;;;;2102541;28;20023;-71
2022/02/18 00:27:48;;;;;;;12.38;5.03;;;9.00;99.90;;;;;;2103377;28;20034;-71
2022/02/18 00:28:49;;;;;;;15.00;4.28;;;9.10;99.90;;;;;;2107317;28;20024;-71
2022/02/18 00:29:50;;;;;;;16.77;4.75;;;9.00;99.90;;;;;;2100135;28;20027;-71
2022/02/18 00:30:51;;;;;;;17.20;4.80;;;9.00;99.90;;;;;;2099329;28;20043;-71
2022/02/18 00:31:51;;;;;;;17.08;4.55;;;9.00;99.90;;;;;;2103458;28;20119;-71
2022/02/18 00:32:52;;;;;;;16.55;5.53;;;9.00;99.90;;;;;;2101379;28;20070;-71
2022/02/18 00:33:52;;;;;;;14.10;4.55;;;9.00;99.90;;;;;;2104159;28;20047;-70
2022/02/18 00:34:53;;;;;;;21.45;5.70;;;9.00;99.90;;;;;;2101262;28;20461;-70
2022/02/18 00:35:53;;;;;;;17.10;5.38;;;9.00;99.90;;;;;;2103427;28;20057;-71
2022/02/18 00:36:54;;;;;;;17.25;5.00;;;9.00;99.90;;;;;;2106862;28;20039;-70
2022/02/18 00:37:55;;;;;;;17.55;4.75;;;9.00;99.90;;;;;;2103051;28;20069;-70
2022/02/18 00:38:55;;;;;;;15.15;5.32;;;9.00;99.90;;;;;;2097234;28;20028;-70
2022/02/18 00:39:56;;;;;;;14.38;4.57;;;9.00;99.90;;;;;;2100171;28;20028;-70
2022/02/18 00:40:57;;;;;;;18.48;5.57;;;9.00;99.90;;;;;;2098989;28;20070;-70
2022/02/18 00:41:58;;;;;;;19.63;4.78;;;9.00;99.90;;;;;;2102955;28;20025;-70
2022/02/18 00:42:59;;;;;;;15.27;4.55;;;8.90;99.90;;;;;;2100567;28;20474;-70
2022/02/18 00:44:00;;;;;;;21.17;5.03;;;8.90;99.90;;;;;;2102301;28;20028;-70
2022/02/18 00:45:00;;;;;;;18.88;4.85;;;9.00;99.90;;;;;;2096789;28;20040;-70
2022/02/18 00:46:01;;;;;;;19.98;5.40;;;8.90;99.90;;;;;;2103140;28;20036;-71
2022/02/18 00:47:02;;;;;;;17.55;5.38;;;8.90;99.90;;;;;;2101849;28;20028;-71
2022/02/18 00:48:03;;;;;;;14.05;4.90;;;8.90;99.90;;;;;;2105102;28;20038;-70
2022/02/18 00:49:03;;;;;;;18.90;4.90;;;8.90;99.90;;;;;;2101607;28;20032;-70
2022/02/18 00:50:04;;;;;;;17.75;5.10;;;8.90;99.90;;;;;;2103755;28;20028;-70
2022/02/18 00:51:06;;;;;;;21.15;6.40;;;8.90;99.90;;;;;;2102772;28;20056;-71
2022/02/18 00:52:07;;;;;;;19.92;5.38;;;8.90;99.90;;;;;;2104311;28;20377;-71
2022/02/18 00:53:07;;;;;;;17.35;5.13;;;8.90;99.90;;;;;;2100618;28;20131;-70
2022/02/18 00:54:08;;;;;;;17.88;4.88;;;8.90;99.90;;;;;;2100281;28;20028;-70
2022/02/18 00:55:09;;;;;;;15.02;5.20;;;8.90;99.90;;;;;;2106024;28;20030;-70
2022/02/18 00:56:10;;;;;;;15.70;5.47;;;8.90;99.90;;;;;;2104678;28;20024;-71
2022/02/18 00:57:10;;;;;;;16.60;5.30;;;8.90;99.90;;;;;;2104388;28;20059;-71
2022/02/18 00:58:11;;;;;;;20.20;5.15;;;8.90;99.90;;;;;;2101439;28;20036;-71
2022/02/18 00:59:11;;;;;;;16.67;5.35;;;8.90;99.90;;;;;;2103841;28;20032;-70
2022/02/18 01:00:16;;;;;;;16.88;5.32;;;8.90;99.90;;;;;;2102565;28;20056;-71
2022/02/18 01:01:16;;;;;;;18.30;5.85;;;8.90;99.90;;;;;;2106054;28;20019;-71
2022/02/18 01:02:17;;;;;;;23.25;6.40;;;8.90;99.90;;;;;;2105234;28;20027;-71
2022/02/18 01:03:18;;;;;;;20.27;5.70;;;8.90;99.90;;;;;;2104296;28;20031;-71
2022/02/18 01:04:19;;;;;;;16.48;4.75;;;8.90;99.90;;;;;;2103011;28;20397;-71
2022/02/18 01:05:19;;;;;;;16.65;5.53;;;8.90;99.90;;;;;;2102989;28;20093;-70
2022/02/18 01:06:21;;;;;;;18.70;5.25;;;8.90;99.90;;;;;;2102329;28;20158;-70
2022/02/18 01:07:23;;;;;;;18.73;5.47;;;8.90;99.90;;;;;;2101669;28;20016;-70
2022/02/18 01:08:24;;;;;;;21.13;5.93;;;8.90;99.90;;;;;;2105786;28;20018;-71
2022/02/18 01:09:24;;;;;;;19.52;5.35;;;8.90;99.90;;;;;;2107464;28;20068;-71
2022/02/18 01:10:25;;;;;;;18.13;5.50;;;8.90;99.90;;;;;;2107680;28;20020;-70
2022/02/18 01:11:25;;;;;;;16.88;5.40;;;8.90;99.90;;;;;;2104365;28;20020;-70
2022/02/18 01:12:26;;;;;;;19.52;5.30;;;8.90;99.90;;;;;;2104298;28;20422;-70
2022/02/18 01:13:28;;;;;;;20.10;5.97;;;8.90;99.90;;;;;;2105725;28;20024;-71
2022/02/18 01:14:28;;;;;;;17.88;6.22;;;8.90;99.90;;;;;;2102328;28;20103;-71
2022/02/18 01:15:29;;;;;;;17.10;6.10;;;8.90;99.90;;;;;;2104371;28;20027;-70
2022/02/18 01:16:29;;;;;;;14.82;4.75;;;8.90;99.90;;;;;;2102267;28;20031;-70
2022/02/18 01:17:30;;;;;;;18.10;5.38;;;8.90;99.90;;;;;;2107392;28;20498;-71
2022/02/18 01:18:31;;;;;;;17.20;5.45;;;8.90;99.90;;;;;;2107660;28;20011;-70
2022/02/18 01:19:31;;;;;;;23.40;6.30;;;8.90;99.90;;;;;;2103190;28;20545;-70
2022/02/18 01:20:32;;;;;;;17.38;5.35;;;8.90;99.90;;;;;;2102766;28;20035;-70
2022/02/18 01:21:32;;;;;;;18.42;5.35;;;8.90;99.90;;;;;;2103488;28;20119;-70
2022/02/18 01:22:33;;;;;;;17.27;5.15;;;8.90;99.90;;;;;;2102101;28;20397;-70
2022/02/18 01:23:35;;;;;;;21.42;5.93;;;8.90;99.90;;;;;;2105749;28;20031;-72
2022/02/18 01:24:37;;;;;;;20.85;6.28;;;8.90;99.90;;;;;;2103217;28;20028;-70
2022/02/18 01:25:38;;;;;;;22.23;5.93;;;8.90;99.90;;;;;;2106817;28;20111;-70
2022/02/18 01:26:38;;;;;;;17.23;5.85;;;8.90;99.90;;;;;;2106266;28;20016;-70
2022/02/18 01:27:39;;;;;;;22.80;5.90;;;8.90;99.90;;;;;;2103257;28;20108;-70
2022/02/18 01:28:40;;;;;;;16.73;5.57;;;8.90;99.90;;;;;;2103667;28;20020;-70
2022/02/18 01:29:40;;;;;;;20.08;5.22;;;8.90;99.90;;;;;;2104671;28;20027;-70
2022/02/18 01:30:42;;;;;;;24.13;6.90;;;8.90;99.90;;;;;;2102887;28;20067;-70
2022/02/18 01:31:43;;;;;;;20.88;5.78;;;8.90;99.90;;;;;;2109198;28;20028;-70
2022/02/18 01:32:43;;;;;;;24.25;6.50;;;8.90;99.90;;;;;;2104681;28;20078;-70
2022/02/18 01:33:44;;;;;;;23.05;6.20;;;8.90;99.90;;;;;;2106187;28;20392;-70
2022/02/18 01:34:44;;;;;;;23.33;6.30;;;8.90;99.90;;;;;;2107084;28;20068;-70
2022/02/18 01:35:45;;;;;;;23.02;5.88;;;8.90;99.90;;;;;;2104385;28;20024;-71
2022/02/18 01:36:46;;;;;;;23.52;6.43;;;8.90;99.90;;;;;;2103610;28;20081;-70
2022/02/18 01:37:49;;;;;;;22.63;6.60;;;8.90;99.90;;;;;;2103062;28;20021;-71
2022/02/18 01:38:49;;;;;;;27.83;5.72;;;8.90;99.90;;;;;;2104230;28;20090;-70
2022/02/18 01:39:50;;;;;;;24.10;6.07;;;8.90;99.90;;;;;;2109195;28;20134;-70
2022/02/18 01:40:51;;;;;;;22.30;6.35;;;8.90;99.90;;;;;;2105251;28;20039;-70
2022/02/18 01:41:51;;;;;;;20.60;6.20;;;8.90;99.90;;;;;;2106554;28;20040;-71
2022/02/18 01:42:52;;;;;;;26.13;6.60;;;8.90;99.90;;;;;;2105541;28;20024;-70
2022/02/18 01:43:55;;;;;;;20.30;6.10;;;8.90;99.90;;;;;;2105891;28;20050;-71
2022/02/18 01:44:56;;;;;;;22.17;6.22;;;8.90;99.90;;;;;;2103256;28;20020;-71
2022/02/18 01:45:56;;;;;;;15.23;5.43;;;9.00;99.90;;;;;;2097272;28;20489;-70
2022/02/18 01:46:57;;;;;;;26.60;7.32;;;9.00;99.90;;;;;;2104274;28;20158;-70
2022/02/18 01:47:57;;;;;;;26.65;6.63;;;9.00;99.90;;;;;;2108677;28;20050;-70
2022/02/18 01:48:58;;;;;;;23.45;6.35;;;9.00;99.90;;;;;;2101756;28;20487;-70
2022/02/18 01:49:59;;;;;;;25.65;6.88;;;9.00;99.90;;;;;;2104175;28;20025;-70
2022/02/18 01:50:59;;;;;;;23.85;6.65;;;9.00;99.90;;;;;;2104389;28;20081;-70
2022/02/18 01:52:00;;;;;;;24.70;6.50;;;9.00;99.90;;;;;;2102346;28;20021;-70
2022/02/18 01:53:01;;;;;;;20.65;5.88;;;9.00;99.90;;;;;;2103344;28;20054;-71
2022/02/18 01:54:02;;;;;;;20.88;6.50;;;9.00;99.90;;;;;;2106194;28;20024;-71
2022/02/18 01:55:10;;;;;;;24.98;6.45;;;9.00;99.90;;;;;;2105343;28;20035;-70
2022/02/18 01:56:11;;;;;;;24.80;7.07;;;9.00;99.90;;;;;;2108620;28;20031;-70
2022/02/18 01:57:13;;;;;;;23.38;6.47;;;9.00;99.90;;;;;;2107406;28;20038;-70
2022/02/18 01:58:14;;;;;;;24.13;6.18;;;9.00;99.90;;;;;;2104719;28;20020;-70
2022/02/18 01:59:15;;;;;;;21.85;6.22;;;9.00;99.90;;;;;;2106318;28;20106;-70
2022/02/18 02:00:18;;;;;;;19.00;5.70;;;9.00;99.90;;;;;;2107857;28;20031;-71
2022/02/18 02:01:19;;;;;;;19.73;5.57;;;9.00;99.90;;;;;;2104305;28;20068;-70
2022/02/18 02:02:19;;;;;;;24.40;6.72;;;9.00;99.90;;;;;;2106052;28;20074;-71
2022/02/18 02:03:20;;;;;;;26.45;5.90;;;9.00;99.90;;;;;;2106881;28;20020;-71
2022/02/18 02:04:21;;;;;;;19.45;5.18;;;9.00;99.90;;;;;;2109232;28;20094;-71
2022/02/18 02:05:22;;;;;;;24.75;6.40;;;9.00;99.90;;;;;;2109298;28;20072;-70
2022/02/18 02:06:24;;;;;;;22.05;5.60;;;9.00;99.90;;;;;;2105809;28;20024;-70
2022/02/18 02:07:24;;;;;;;24.25;6.50;;;9.00;99.90;;;;;;2108619;28;20016;-70
2022/02/18 02:08:27;;;;;;;22.27;5.88;;;9.00;99.90;;;;;;2107341;28;20036;-70
2022/02/18 02:09:28;;;;;;;29.17;6.72;;;9.00;99.90;;;;;;2104143;28;20020;-70
2022/02/18 02:10:30;;;;;;;24.08;6.10;;;9.00;99.90;;;;;;2106310;28;20013;-70
2022/02/18 02:11:30;;;;;;;24.65;6.70;;;9.00;99.90;;;;;;2107260;28;20026;-71
2022/02/18 02:12:40;;;;;;;22.30;6.43;;;9.00;99.90;;;;;;2108549;28;20050;-70
2022/02/18 02:13:45;;;;;;;20.48;6.20;;;9.00;99.90;;;;;;2109408;28;20016;-70
2022/02/18 02:14:45;;;;;;;19.60;5.38;;;9.00;99.90;;;;;;2103705;28;20032;-71
2022/02/18 02:15:46;;;;;;;28.48;6.43;;;9.00;99.90;;;;;;2101991;28;20116;-70
2022/02/18 02:16:47;;;;;;;24.38;5.85;;;9.00;99.90;;;;;;2104643;28;20024;-71
2022/02/18 02:17:48;;;;;;;24.88;6.57;;;9.00;99.90;;;;;;2105821;28;20059;-71
2022/02/18 02:18:49;;;;;;;25.85;5.65;;;9.00;99.90;;;;;;2103113;28;20020;-70
2022/02/18 02:19:49;;;;;;;25.17;6.43;;;9.00;99.90;;;;;;2105988;28;20019;-70
2022/02/18 02:20:51;;;;;;;27.95;6.45;;;9.00;99.90;;;;;;2106206;28;20016;-70
2022/02/18 02:21:54;;;;;;;18.33;5.22;;;9.00;99.90;;;;;;2104817;28;20024;-71
2022/02/18 02:22:55;;;;;;;26.23;6.25;;;9.00;99.90;;;;;;2107597;28;20024;-70
2022/02/18 02:23:56;;;;;;;21.40;4.85;;;9.00;99.90;;;;;;2105709;28;20032;-70
2022/02/18 02:24:58;;;;;;;23.23;5.82;;;9.10;99.90;;;;;;2104770;28;20024;-70
2022/02/18 02:25:58;;;;;;;20.15;5.70;;;9.00;99.90;;;;;;2103973;28;20028;-70
2022/02/18 02:26:59;;;;;;;21.48;5.13;;;9.00;99.90;;;;;;2105220;28;20099;-70
2022/02/18 02:27:59;;;;;;;15.40;4.72;;;9.00;99.90;;;;;;2107021;28;20035;-70
2022/02/18 02:29:00;;;;;;;22.08;5.03;;;9.00;99.90;;;;;;2107996;28;20058;-70
2022/02/18 02:30:01;;;;;;;24.13;5.72;;;9.00;99.90;;;;;;2106547;28;20020;-70
2022/02/18 02:31:02;;;;;;;21.02;5.82;;;9.00;99.90;;;;;;2107210;28;20024;-70
2022/02/18 02:32:02;;;;;;;22.48;5.53;;;9.00;99.90;;;;;;2103670;28;20036;-71
2022/02/18 02:33:03;;;;;;;20.65;5.80;;;9.00;99.90;;;;;;2102874;28;20031;-71
2022/02/18 02:34:04;;;;;;;21.30;5.70;;;9.00;99.90;;;;;;2105440;28;20023;-71
2022/02/18 02:35:05;;;;;;;23.70;6.10;;;9.00;99.90;;;;;;2103709;28;20028;-70
2022/02/18 02:36:05;;;;;;;23.45;6.07;;;9.00;99.90;;;;;;2103740;28;20476;-70
2022/02/18 02:37:06;;;;;;;19.77;5.55;;;9.00;99.90;;;;;;2107218;28;20043;-70
2022/02/18 02:38:07;;;;;;;17.00;5.53;;;9.00;99.90;;;;;;2105389;28;20020;-70
2022/02/18 02:39:07;;;;;;;25.52;6.15;;;9.00;99.90;;;;;;2106422;28;20508;-70
2022/02/18 02:40:09;;;;;;;21.52;5.93;;;9.10;99.90;;;;;;2104583;28;20028;-70
2022/02/18 02:41:09;;;;;;;18.90;5.57;;;9.10;99.90;;;;;;2106900;28;20559;-70
2022/02/18 02:42:10;;;;;;;20.95;6.07;;;9.10;99.90;;;;;;2108414;28;20103;-71
2022/02/18 02:43:10;;;;;;;23.45;6.07;;;9.10;99.90;;;;;;2109934;28;20056;-70
2022/02/18 02:44:11;;;;;;;23.85;5.00;;;9.10;99.90;;;;;;2107442;28;20110;-70
2022/02/18 02:45:12;;;;;;;21.25;5.72;;;9.10;99.90;;;;;;2100728;28;20046;-70
2022/02/18 02:46:13;;;;;;;21.58;5.53;;;9.10;99.90;;;;;;2106513;28;20040;-70
2022/02/18 02:47:13;;;;;;;24.15;6.03;;;9.10;99.90;;;;;;2107642;28;20047;-70
2022/02/18 02:48:14;;;;;;;21.85;5.45;;;9.10;99.90;;;;;;2104365;28;20441;-71
2022/02/18 02:49:15;;;;;;;21.63;5.35;;;9.10;99.90;;;;;;2106461;28;20751;-71
2022/02/18 02:50:16;;;;;;;18.23;5.72;;;9.10;99.90;;;;;;2102999;28;20445;-70
2022/02/18 02:51:17;;;;;;;23.00;5.88;;;9.10;99.90;;;;;;2105766;28;20044;-70
2022/02/18 02:52:17;;;;;;;21.13;5.47;;;9.10;99.90;;;;;;2108054;28;20472;-71
2022/02/18 02:53:18;;;;;;;21.15;5.57;;;9.10;99.90;;;;;;2101707;28;20030;-71
2022/02/18 02:54:19;;;;;;;24.20;6.35;;;9.10;99.90;;;;;;2106188;28;20136;-71
2022/02/18 02:55:19;;;;;;;22.17;5.65;;;9.10;99.90;;;;;;2106100;28;20526;-70
2022/02/18 02:56:20;;;;;;;25.52;6.20;;;9.10;99.90;;;;;;2105475;28;20325;-70
2022/02/18 02:57:20;;;;;;;18.35;5.57;;;9.10;99.90;;;;;;2102350;28;20454;-70
2022/02/18 02:58:21;;;;;;;26.17;5.18;;;9.10;99.90;;;;;;2102213;28;20020;-70
2022/02/18 02:59:21;;;;;;;21.40;5.85;;;9.10;99.90;;;;;;2109073;28;20111;-71
2022/02/18 03:00:22;;;;;;;21.75;5.88;;;9.10;99.90;;;;;;2109103;28;20023;-71
2022/02/18 03:01:22;;;;;;;19.90;5.88;;;9.10;99.90;;;;;;2108761;28;20129;-71
2022/02/18 03:02:23;;;;;;;29.83;6.85;;;9.10;99.90;;;;;;2106352;28;20015;-71
2022/02/18 03:03:24;;;;;;;23.23;5.60;;;9.10;99.90;;;;;;2103854;28;20569;-70
2022/02/18 03:04:24;;;;;;;24.80;5.32;;;9.10;99.90;;;;;;2102847;28;20365;-70
2022/02/18 03:05:25;;;;;;;27.17;6.53;;;9.10;99.90;;;;;;2104326;28;20663;-71
2022/02/18 03:06:25;;;;;;;25.00;6.05;;;9.10;99.90;;;;;;2102956;28;20103;-70
2022/02/18 03:07:26;;;;;;;21.58;5.65;;;9.10;99.90;;;;;;2102472;28;20384;-71
2022/02/18 03:08:26;;;;;;;23.05;6.55;;;9.10;99.90;;;;;;2107825;28;20050;-71
2022/02/18 03:09:27;;;;;;;19.50;5.65;;;9.20;99.90;;;;;;2107149;28;20089;-71
2022/02/18 03:10:27;;;;;;;20.85;6.13;;;9.20;99.90;;;;;;2101511;28;20375;-70
2022/02/18 03:11:29;;;;;;;28.52;6.53;;;9.20;99.90;;;;;;2105938;28;20032;-71
2022/02/18 03:12:30;;;;;;;17.85;4.72;;;9.20;99.90;;;;;;2103550;28;20306;-71
2022/02/18 03:13:31;;;;;;;22.55;5.38;;;9.20;99.90;;;;;;2105404;28;20039;-70
2022/02/18 03:14:32;;;;;;;23.05;5.60;;;9.20;99.90;;;;;;2104519;28;20070;-71
2022/02/18 03:15:33;;;;;;;19.42;5.57;;;9.20;99.90;;;;;;2105929;28;20030;-70
2022/02/18 03:16:33;;;;;;;24.65;5.95;;;9.20;99.90;;;;;;2106550;28;20016;-70
2022/02/18 03:17:34;;;;;;;24.05;6.53;;;9.20;99.90;;;;;;2106653;28;20020;-70
2022/02/18 03:18:34;;;;;;;22.92;5.63;;;9.20;99.90;;;;;;2104413;28;20027;-70
2022/02/18 03:19:35;;;;;;;21.20;5.13;;;9.20;99.90;;;;;;2098097;28;20106;-70
2022/02/18 03:20:35;;;;;;;26.10;6.57;;;9.20;99.90;;;;;;2101634;28;20060;-70
2022/02/18 03:21:36;;;;;;;18.15;5.03;;;9.20;99.90;;;;;;2104267;28;20036;-70
2022/02/18 03:22:36;;;;;;;19.10;5.50;;;9.20;99.90;;;;;;2103635;28;20036;-71
2022/02/18 03:23:38;;;;;;;22.27;5.72;;;9.20;99.90;;;;;;2106845;28;20027;-71
2022/02/18 03:24:38;;;;;;;23.88;5.45;;;9.20;99.90;;;;;;2104889;28;20028;-71
2022/02/18 03:25:39;;;;;;;20.70;5.43;;;9.20;99.90;;;;;;2106335;28;20716;-71
2022/02/18 03:26:39;;;;;;;26.10;5.82;;;9.20;99.90;;;;;;2104983;28;20105;-71
2022/02/18 03:27:42;;;;;;;25.27;5.93;;;9.20;99.90;;;;;;2105540;28;20051;-70
2022/02/18 03:28:44;;;;;;;27.13;5.60;;;9.20;99.90;;;;;;2104614;28;20032;-71
2022/02/18 03:29:45;;;;;;;20.42;5.57;;;9.20;99.90;;;;;;2103568;28;20035;-71
2022/02/18 03:30:46;;;;;;;26.25;6.35;;;9.20;99.90;;;;;;2102022;28;20036;-71
2022/02/18 03:31:46;;;;;;;21.25;4.78;;;9.20;99.90;;;;;;2107941;28;20036;-71
2022/02/18 03:32:47;;;;;;;20.45;5.05;;;9.20;99.90;;;;;;2103705;28;20029;-71
2022/02/18 03:33:47;;;;;;;22.20;5.22;;;9.20;99.90;;;;;;2107032;28;20510;-71
2022/02/18 03:34:48;;;;;;;24.20;5.07;;;9.20;99.90;;;;;;2107538;28;20376;-70
2022/02/18 03:35:48;;;;;;;28.67;6.28;;;9.20;99.90;;;;;;2106295;28;20460;-71
2022/02/18 03:36:49;;;;;;;20.35;6.00;;;9.20;99.90;;;;;;2105860;28;20478;-71
2022/02/18 03:37:49;;;;;;;18.42;5.45;;;9.20;99.90;;;;;;2105624;28;20376;-71
2022/02/18 03:38:50;;;;;;;25.73;5.45;;;9.20;99.90;;;;;;2108221;28;20085;-71
2022/02/18 03:39:50;;;;;;;18.88;5.35;;;9.20;99.90;;;;;;2108548;28;20020;-71
2022/02/18 03:40:51;;;;;;;22.05;5.53;;;9.20;99.90;;;;;;2105673;28;20024;-71
2022/02/18 03:41:51;;;;;;;23.60;5.60;;;9.30;99.90;;;;;;2106710;28;20031;-71
2022/02/18 03:42:52;;;;;;;25.85;6.20;;;9.30;99.90;;;;;;2099351;28;20047;-71
2022/02/18 03:43:53;;;;;;;22.90;5.57;;;9.30;99.90;;;;;;2103859;28;20032;-71
2022/02/18 03:44:53;;;;;;;23.70;5.88;;;9.30;99.90;;;;;;2103026;28;20024;-71
2022/02/18 03:45:54;;;;;;;22.35;5.70;;;9.30;99.90;;;;;;2104968;28;20383;-70
2022/02/18 03:46:54;;;;;;;19.95;5.40;;;9.30;99.90;;;;;;2101129;28;20126;-71
2022/02/18 03:47:55;;;;;;;26.13;6.30;;;9.30;99.90;;;;;;2107320;28;20044;-71
2022/02/18 03:48:55;;;;;;;22.27;5.05;;;9.30;99.90;;;;;;2103085;28;20579;-71
2022/02/18 03:49:56;;;;;;;22.75;6.22;;;9.30;99.90;;;;;;2106129;28;20078;-71
2022/02/18 03:50:57;;;;;;;25.13;5.63;;;9.30;99.90;;;;;;2102445;28;20028;-71
2022/02/18 03:51:57;;;;;;;22.45;5.60;;;9.30;99.90;;;;;;2105038;28;20582;-70
2022/02/18 03:52:58;;;;;;;22.95;5.80;;;9.30;99.90;;;;;;2102298;28;20527;-71
2022/02/18 03:53:59;;;;;;;29.92;6.35;;;9.30;99.90;;;;;;2105529;28;20019;-71
2022/02/18 03:54:59;;;;;;;23.60;6.05;;;9.30;99.90;;;;;;2108690;28;20054;-71
2022/02/18 03:56:01;;;;;;;28.55;6.72;;;9.30;99.90;;;;;;2107041;28;20438;-70
2022/02/18 03:57:02;;;;;;;23.15;5.90;;;9.30;99.90;;;;;;2106730;28;20180;-71
2022/02/18 03:58:03;;;;;;;21.63;5.55;;;9.30;99.90;;;;;;2106525;28;20028;-71
2022/02/18 03:59:03;;;;;;;22.02;6.53;;;9.30;99.90;;;;;;2100060;28;20064;-70
2022/02/18 04:00:07;;;;;;;27.60;6.00;;;9.30;99.90;;;;;;2104779;28;20028;-71
2022/02/18 04:01:08;;;;;;;23.27;5.97;;;9.30;99.90;;;;;;2102158;28;20115;-71
2022/02/18 04:02:08;;;;;;;32.35;6.38;;;9.30;99.90;;;;;;2107033;28;20033;-71
2022/02/18 04:03:09;;;;;;;28.42;6.30;;;9.30;99.90;;;;;;2109071;28;20028;-71
2022/02/18 04:04:09;;;;;;;20.58;5.53;;;9.30;99.90;;;;;;2106046;28;20094;-71
2022/02/18 04:05:10;;;;;;;31.75;6.22;;;9.30;99.90;;;;;;2105862;28;20032;-71
2022/02/18 04:06:11;;;;;;;22.75;6.10;;;9.30;99.90;;;;;;2102667;28;20051;-71
2022/02/18 04:07:12;;;;;;;28.92;6.43;;;9.30;99.90;;;;;;2102531;28;20377;-71
2022/02/18 04:08:13;;;;;;;26.63;6.10;;;9.30;99.90;;;;;;2102855;28;20028;-71
2022/02/18 04:09:13;;;;;;;24.25;6.38;;;9.30;99.90;;;;;;2103207;28;20063;-71
2022/02/18 04:10:14;;;;;;;22.85;5.80;;;9.30;99.90;;;;;;2103330;28;20032;-70
2022/02/18 04:11:14;;;;;;;24.20;6.97;;;9.30;99.90;;;;;;2103862;28;20143;-71
2022/02/18 04:12:15;;;;;;;23.40;5.63;;;9.30;99.90;;;;;;2096537;28;20028;-71
2022/02/18 04:13:16;;;;;;;31.17;7.25;;;9.30;99.90;;;;;;2098779;28;20036;-71
2022/02/18 04:14:16;;;;;;;23.52;6.60;;;9.30;99.90;;;;;;2100785;28;20028;-70
2022/02/18 04:15:17;;;;;;;21.70;5.88;;;9.30;99.90;;;;;;2104832;28;20031;-71
2022/02/18 04:16:17;;;;;;;22.65;6.60;;;9.30;99.90;;;;;;2100877;28;20146;-70
2022/02/18 04:17:18;;;;;;;21.42;5.50;;;9.30;99.90;;;;;;2103633;28;20028;-71
2022/02/18 04:18:18;;;;;;;24.35;6.40;;;9.30;99.90;;;;;;2100685;28;20103;-70
2022/02/18 04:19:19;;;;;;;24.10;6.05;;;9.30;99.90;;;;;;2101366;28;20023;-71
2022/02/18 04:20:20;;;;;;;27.83;6.50;;;9.30;99.90;;;;;;2097175;28;20653;-71
2022/02/18 04:21:20;;;;;;;25.58;6.20;;;9.30;99.90;;;;;;2105399;28;20487;-71
2022/02/18 04:22:21;;;;;;;22.25;5.70;;;9.30;99.90;;;;;;2103168;28;20019;-71
2022/02/18 04:23:22;;;;;;;21.95;5.55;;;9.30;99.90;;;;;;2101341;28;20016;-71
2022/02/18 04:24:22;;;;;;;27.70;6.63;;;9.30;99.90;;;;;;2102539;28;20027;-71
2022/02/18 04:25:23;;;;;;;27.20;6.43;;;9.30;99.90;;;;;;2101989;28;20040;-71
2022/02/18 04:26:23;;;;;;;27.50;6.22;;;9.30;99.90;;;;;;2103616;28;20048;-71
2022/02/18 04:27:24;;;;;;;26.77;6.65;;;9.30;99.90;;;;;;2101908;28;20040;-71
2022/02/18 04:28:24;;;;;;;24.92;5.85;;;9.40;99.90;;;;;;2102295;28;20019;-71
2022/02/18 04:29:25;;;;;;;27.83;6.82;;;9.40;99.90;;;;;;2103538;28;20103;-71
2022/02/18 04:30:27;;;;;;;20.70;6.00;;;9.30;99.90;;;;;;2105448;28;20043;-71
2022/02/18 04:31:27;;;;;;;27.55;5.97;;;9.40;99.90;;;;;;2101634;28;20028;-71
2022/02/18 04:32:28;;;;;;;27.05;6.03;;;9.40;99.90;;;;;;2100176;28;20063;-70
2022/02/18 04:33:28;;;;;;;26.45;6.03;;;9.40;99.90;;;;;;2107692;28;20869;-71
2022/02/18 04:34:29;;;;;;;26.73;5.88;;;9.30;99.90;;;;;;2107395;28;20032;-71
2022/02/18 04:35:29;;;;;;;19.48;5.35;;;9.40;99.90;;;;;;2105970;28;20531;-71
2022/02/18 04:36:30;;;;;;;24.95;5.95;;;9.40;99.90;;;;;;2104116;28;20035;-71
2022/02/18 04:37:30;;;;;;;25.67;6.00;;;9.40;99.90;;;;;;2102071;28;20392;-71
2022/02/18 04:38:31;;;;;;;26.63;6.05;;;9.40;99.90;;;;;;2102742;28;20788;-71
2022/02/18 04:39:31;;;;;;;22.10;5.95;;;9.40;99.90;;;;;;2104280;28;20463;-71
2022/02/18 04:40:32;;;;;;;23.80;6.43;;;9.40;99.90;;;;;;2101261;28;20393;-71
2022/02/18 04:41:38;;;;;;;27.38;6.95;;;9.40;99.90;;;;;;2107344;28;20023;-71
2022/02/18 04:42:38;;;;;;;24.45;5.93;;;9.40;99.90;;;;;;2107320;28;20416;-71
2022/02/18 04:43:39;;;;;;;26.30;6.65;;;9.40;99.90;;;;;;2105336;28;20043;-71
2022/02/18 04:44:39;;;;;;;25.45;6.10;;;9.40;99.90;;;;;;2105926;28;20081;-71
2022/02/18 04:45:40;;;;;;;30.95;7.18;;;9.40;99.90;;;;;;2102112;28;20414;-71
2022/02/18 04:46:41;;;;;;;28.45;6.00;;;9.40;99.90;;;;;;2102051;28;20032;-71
2022/02/18 04:47:42;;;;;;;22.77;6.05;;;9.40;99.90;;;;;;2102940;28;20037;-71
2022/02/18 04:48:43;;;;;;;21.45;5.28;;;9.40;99.90;;;;;;2102425;28;20054;-71
2022/02/18 04:49:45;;;;;;;24.27;5.97;;;9.40;99.90;;;;;;2103931;28;20020;-70
2022/02/18 04:50:46;;;;;;;27.83;6.13;;;9.40;99.90;;;;;;2103118;28;20073;-70
2022/02/18 04:51:49;;;;;;;27.15;7.07;;;9.40;99.90;;;;;;2102584;28;20081;-71
2022/02/18 04:52:49;;;;;;;18.48;5.90;;;9.40;99.90;;;;;;2100718;28;20535;-71
2022/02/18 04:53:50;;;;;;;24.25;5.85;;;9.40;99.90;;;;;;2104930;28;20379;-71
2022/02/18 04:54:53;;;;;;;27.60;6.18;;;9.40;99.90;;;;;;2104482;28;20460;-71
2022/02/18 04:55:53;;;;;;;23.05;4.97;;;9.40;99.90;;;;;;2103626;28;20059;-71
2022/02/18 04:56:54;;;;;;;27.55;5.65;;;9.40;99.90;;;;;;2099934;28;20025;-71
2022/02/18 04:57:54;;;;;;;26.98;6.55;;;9.40;99.90;;;;;;2100044;28;20028;-71
2022/02/18 04:58:55;;;;;;;25.65;6.03;;;9.40;99.90;;;;;;2100767;28;20074;-70
2022/02/18 04:59:56;;;;;;;21.58;6.03;;;9.40;99.90;;;;;;2106115;28;20023;-71
2022/02/18 05:00:56;;;;;;;24.50;6.20;;;9.40;99.90;;;;;;2103698;28;20381;-71
2022/02/18 05:01:57;;;;;;;19.80;5.80;;;9.40;99.90;;;;;;2102275;28;20344;-71
2022/02/18 05:02:58;;;;;;;23.13;6.10;;;9.40;99.90;;;;;;2101202;28;20119;-71
2022/02/18 05:03:58;;;;;;;26.38;5.53;;;9.40;99.90;;;;;;2101621;28;20040;-71
2022/02/18 05:04:59;;;;;;;25.23;5.80;;;9.40;99.90;;;;;;2104323;28;20024;-71
2022/02/18 05:05:59;;;;;;;21.75;5.72;;;9.50;99.90;;;;;;2107828;28;20032;-70
2022/02/18 05:07:00;;;;;;;20.42;5.10;;;9.40;99.90;;;;;;2105513;28;20111;-71
2022/02/18 05:08:00;;;;;;;21.35;5.07;;;9.40;99.90;;;;;;2107785;28;20032;-71
2022/02/18 05:09:01;;;;;;;22.38;5.03;;;9.40;99.90;;;;;;2104911;28;20369;-71
2022/02/18 05:10:03;;;;;;;17.88;4.78;;;9.40;99.90;;;;;;2107099;28;20043;-71
2022/02/18 05:11:04;;;;;;;28.38;6.35;;;9.40;99.90;;;;;;2101940;28;20508;-71
2022/02/18 05:12:05;;;;;;;22.20;5.75;;;9.40;99.90;;;;;;2105219;28;20693;-71
2022/02/18 05:13:05;;;;;;;24.00;5.72;;;9.50;99.90;;;;;;2104746;28;20464;-71
2022/02/18 05:14:06;;;;;;;26.08;5.32;;;9.50;99.90;;;;;;2108146;28;20028;-71
2022/02/18 05:15:07;;;;;;;22.08;6.13;;;9.50;99.90;;;;;;2106705;28;20036;-71
2022/02/18 05:16:08;;;;;;;24.60;6.18;;;9.40;99.90;;;;;;2106214;28;20104;-71
2022/02/18 05:17:08;;;;;;;23.27;5.85;;;9.40;99.90;;;;;;2104646;28;20492;-70